sensor_id;sensor_type;location;lat;lon;timestamp;P1;durP1;ratioP1;P2;durP2;ratioP2
23258;SDS011;11798;51.528;7.240;2023-08-01T00:00:04;3.40;;;2.40;;
23258;SDS011;11798;51.528;7.240;2023-08-01T00:02:32;2.27;;;2.07;;
23258;SDS011;11798;51.528;7.240;2023-08-01T00:04:58;2.40;;;2.10;;
23258;SDS011;11798;51.528;7.240;2023-08-01T00:07:24;2.43;;;2.00;;
23258;SDS011;11798;51.528;7.240;2023-08-01T00:09:53;2.50;;;1.63;;
23258;SDS011;11798;51.528;7.240;2023-08-01T00:12:18;2.10;;;1.60;;
23258;SDS011;11798;51.528;7.240;2023-08-01T00:14:44;2.90;;;1.70;;
23258;SDS011;11798;51.528;7.240;2023-08-01T00:17:10;1.17;;;1.07;;
23258;SDS011;11798;51.528;7.240;2023-08-01T00:19:36;1.40;;;1.07;;
23258;SDS011;11798;51.528;7.240;2023-08-01T00:22:01;1.37;;;1.23;;
23258;SDS011;11798;51.528;7.240;2023-08-01T00:24:27;1.97;;;1.00;;
23258;SDS011;11798;51.528;7.240;2023-08-01T00:26:53;1.43;;;1.20;;
23258;SDS011;11798;51.528;7.240;2023-08-01T00:29:20;2.03;;;1.33;;
23258;SDS011;11798;51.528;7.240;2023-08-01T00:31:46;2.97;;;1.10;;
23258;SDS011;11798;51.528;7.240;2023-08-01T00:34:12;3.53;;;1.20;;
23258;SDS011;11798;51.528;7.240;2023-08-01T00:36:37;1.83;;;1.20;;
23258;SDS011;11798;51.528;7.240;2023-08-01T00:39:03;2.00;;;1.50;;
23258;SDS011;11798;51.528;7.240;2023-08-01T00:41:28;2.83;;;1.73;;
23258;SDS011;11798;51.528;7.240;2023-08-01T00:43:54;3.20;;;2.57;;
23258;SDS011;11798;51.528;7.240;2023-08-01T00:46:20;4.20;;;2.70;;
23258;SDS011;11798;51.528;7.240;2023-08-01T00:48:46;3.73;;;3.10;;
23258;SDS011;11798;51.528;7.240;2023-08-01T00:51:12;3.47;;;2.70;;
23258;SDS011;11798;51.528;7.240;2023-08-01T00:53:39;4.17;;;3.03;;
23258;SDS011;11798;51.528;7.240;2023-08-01T00:56:05;3.17;;;2.87;;
23258;SDS011;11798;51.528;7.240;2023-08-01T00:58:30;5.47;;;3.47;;
23258;SDS011;11798;51.528;7.240;2023-08-01T01:00:56;4.37;;;2.97;;
23258;SDS011;11798;51.528;7.240;2023-08-01T01:03:22;4.40;;;3.30;;
23258;SDS011;11798;51.528;7.240;2023-08-01T01:06:00;5.00;;;3.43;;
23258;SDS011;11798;51.528;7.240;2023-08-01T01:08:35;4.00;;;3.20;;
23258;SDS011;11798;51.528;7.240;2023-08-01T01:11:01;4.33;;;3.37;;
23258;SDS011;11798;51.528;7.240;2023-08-01T01:13:26;5.07;;;3.50;;
23258;SDS011;11798;51.528;7.240;2023-08-01T01:15:52;3.77;;;3.40;;
23258;SDS011;11798;51.528;7.240;2023-08-01T01:18:17;4.10;;;3.50;;
23258;SDS011;11798;51.528;7.240;2023-08-01T01:20:43;5.47;;;3.60;;
23258;SDS011;11798;51.528;7.240;2023-08-01T01:23:09;4.70;;;3.83;;
23258;SDS011;11798;51.528;7.240;2023-08-01T01:25:35;4.63;;;4.13;;
23258;SDS011;11798;51.528;7.240;2023-08-01T01:28:04;6.07;;;4.87;;
23258;SDS011;11798;51.528;7.240;2023-08-01T01:30:31;6.03;;;5.43;;
23258;SDS011;11798;51.528;7.240;2023-08-01T01:33:00;7.10;;;6.33;;
23258;SDS011;11798;51.528;7.240;2023-08-01T01:35:27;6.93;;;6.23;;
23258;SDS011;11798;51.528;7.240;2023-08-01T01:37:52;8.07;;;7.27;;
23258;SDS011;11798;51.528;7.240;2023-08-01T01:40:18;10.73;;;7.93;;
23258;SDS011;11798;51.528;7.240;2023-08-01T01:42:44;10.20;;;8.93;;
23258;SDS011;11798;51.528;7.240;2023-08-01T01:45:10;12.80;;;9.73;;
23258;SDS011;11798;51.528;7.240;2023-08-01T01:47:36;9.00;;;8.10;;
23258;SDS011;11798;51.528;7.240;2023-08-01T01:50:01;8.00;;;6.13;;
23258;SDS011;11798;51.528;7.240;2023-08-01T01:52:28;9.73;;;6.20;;
23258;SDS011;11798;51.528;7.240;2023-08-01T01:54:53;7.97;;;4.57;;
23258;SDS011;11798;51.528;7.240;2023-08-01T01:57:19;4.93;;;3.90;;
23258;SDS011;11798;51.528;7.240;2023-08-01T01:59:45;4.87;;;4.27;;
23258;SDS011;11798;51.528;7.240;2023-08-01T02:02:10;4.30;;;3.90;;
23258;SDS011;11798;51.528;7.240;2023-08-01T02:04:36;4.23;;;3.83;;
23258;SDS011;11798;51.528;7.240;2023-08-01T02:07:01;3.93;;;3.03;;
23258;SDS011;11798;51.528;7.240;2023-08-01T02:09:28;3.67;;;2.83;;
23258;SDS011;11798;51.528;7.240;2023-08-01T02:11:53;5.47;;;3.10;;
23258;SDS011;11798;51.528;7.240;2023-08-01T02:14:19;2.73;;;2.33;;
23258;SDS011;11798;51.528;7.240;2023-08-01T02:16:45;2.43;;;2.10;;
23258;SDS011;11798;51.528;7.240;2023-08-01T02:19:10;3.10;;;2.50;;
23258;SDS011;11798;51.528;7.240;2023-08-01T02:21:36;3.23;;;2.90;;
23258;SDS011;11798;51.528;7.240;2023-08-01T02:24:02;3.70;;;2.77;;
23258;SDS011;11798;51.528;7.240;2023-08-01T02:26:28;5.20;;;4.10;;
23258;SDS011;11798;51.528;7.240;2023-08-01T02:28:54;7.20;;;5.10;;
23258;SDS011;11798;51.528;7.240;2023-08-01T02:31:20;10.80;;;6.40;;
23258;SDS011;11798;51.528;7.240;2023-08-01T02:33:45;10.20;;;7.10;;
23258;SDS011;11798;51.528;7.240;2023-08-01T02:36:11;12.27;;;7.93;;
23258;SDS011;11798;51.528;7.240;2023-08-01T02:38:37;10.70;;;8.63;;
23258;SDS011;11798;51.528;7.240;2023-08-01T02:41:02;12.73;;;9.20;;
23258;SDS011;11798;51.528;7.240;2023-08-01T02:43:28;10.67;;;9.00;;
23258;SDS011;11798;51.528;7.240;2023-08-01T02:45:53;12.93;;;8.80;;
23258;SDS011;11798;51.528;7.240;2023-08-01T02:48:19;14.63;;;9.40;;
23258;SDS011;11798;51.528;7.240;2023-08-01T02:50:45;13.03;;;9.50;;
23258;SDS011;11798;51.528;7.240;2023-08-01T02:53:11;15.07;;;9.90;;
23258;SDS011;11798;51.528;7.240;2023-08-01T02:55:36;11.20;;;9.03;;
23258;SDS011;11798;51.528;7.240;2023-08-01T02:58:02;14.10;;;9.67;;
23258;SDS011;11798;51.528;7.240;2023-08-01T03:00:27;17.17;;;11.20;;
23258;SDS011;11798;51.528;7.240;2023-08-01T03:02:53;14.00;;;11.20;;
23258;SDS011;11798;51.528;7.240;2023-08-01T03:05:19;15.27;;;11.37;;
23258;SDS011;11798;51.528;7.240;2023-08-01T03:07:44;16.97;;;11.90;;
23258;SDS011;11798;51.528;7.240;2023-08-01T03:10:10;15.33;;;10.70;;
23258;SDS011;11798;51.528;7.240;2023-08-01T03:12:38;15.63;;;11.43;;
23258;SDS011;11798;51.528;7.240;2023-08-01T03:15:04;18.80;;;11.70;;
23258;SDS011;11798;51.528;7.240;2023-08-01T03:17:33;18.53;;;12.13;;
23258;SDS011;11798;51.528;7.240;2023-08-01T03:19:59;21.80;;;12.60;;
23258;SDS011;11798;51.528;7.240;2023-08-01T03:22:24;18.13;;;11.30;;
23258;SDS011;11798;51.528;7.240;2023-08-01T03:24:50;17.50;;;12.50;;
23258;SDS011;11798;51.528;7.240;2023-08-01T03:27:16;20.23;;;13.13;;
23258;SDS011;11798;51.528;7.240;2023-08-01T03:29:41;20.20;;;14.20;;
23258;SDS011;11798;51.528;7.240;2023-08-01T03:32:07;20.80;;;14.53;;
23258;SDS011;11798;51.528;7.240;2023-08-01T03:34:33;19.90;;;14.67;;
23258;SDS011;11798;51.528;7.240;2023-08-01T03:36:58;19.97;;;14.87;;
23258;SDS011;11798;51.528;7.240;2023-08-01T03:39:24;22.10;;;15.00;;
23258;SDS011;11798;51.528;7.240;2023-08-01T03:41:49;23.07;;;16.77;;
23258;SDS011;11798;51.528;7.240;2023-08-01T03:44:15;23.83;;;17.03;;
23258;SDS011;11798;51.528;7.240;2023-08-01T03:46:42;29.17;;;19.43;;
23258;SDS011;11798;51.528;7.240;2023-08-01T03:49:08;28.00;;;19.47;;
23258;SDS011;11798;51.528;7.240;2023-08-01T03:51:34;25.60;;;19.47;;
23258;SDS011;11798;51.528;7.240;2023-08-01T03:53:59;30.60;;;20.90;;
23258;SDS011;11798;51.528;7.240;2023-08-01T03:56:25;29.40;;;20.63;;
23258;SDS011;11798;51.528;7.240;2023-08-01T03:58:52;31.57;;;21.70;;
23258;SDS011;11798;51.528;7.240;2023-08-01T04:01:18;28.17;;;20.13;;
23258;SDS011;11798;51.528;7.240;2023-08-01T04:03:43;27.97;;;21.07;;
23258;SDS011;11798;51.528;7.240;2023-08-01T04:06:09;30.90;;;21.83;;
23258;SDS011;11798;51.528;7.240;2023-08-01T04:08:35;29.77;;;20.87;;
23258;SDS011;11798;51.528;7.240;2023-08-01T04:11:01;28.80;;;20.90;;
23258;SDS011;11798;51.528;7.240;2023-08-01T04:13:27;28.10;;;19.97;;
23258;SDS011;11798;51.528;7.240;2023-08-01T04:15:53;27.03;;;21.10;;
23258;SDS011;11798;51.528;7.240;2023-08-01T04:18:18;32.90;;;21.83;;
23258;SDS011;11798;51.528;7.240;2023-08-01T04:20:44;27.43;;;22.13;;
23258;SDS011;11798;51.528;7.240;2023-08-01T04:23:10;31.40;;;23.70;;
23258;SDS011;11798;51.528;7.240;2023-08-01T04:25:36;35.50;;;24.30;;
23258;SDS011;11798;51.528;7.240;2023-08-01T04:28:02;31.10;;;24.17;;
23258;SDS011;11798;51.528;7.240;2023-08-01T04:30:27;33.27;;;24.73;;
23258;SDS011;11798;51.528;7.240;2023-08-01T04:32:53;40.53;;;26.43;;
23258;SDS011;11798;51.528;7.240;2023-08-01T04:35:18;32.23;;;24.57;;
23258;SDS011;11798;51.528;7.240;2023-08-01T04:37:44;37.40;;;25.67;;
23258;SDS011;11798;51.528;7.240;2023-08-01T04:40:09;36.83;;;22.33;;
23258;SDS011;11798;51.528;7.240;2023-08-01T04:42:35;26.77;;;19.27;;
23258;SDS011;11798;51.528;7.240;2023-08-01T04:45:01;29.70;;;20.07;;
23258;SDS011;11798;51.528;7.240;2023-08-01T04:47:27;26.73;;;19.20;;
23258;SDS011;11798;51.528;7.240;2023-08-01T04:49:52;26.07;;;18.67;;
23258;SDS011;11798;51.528;7.240;2023-08-01T04:52:18;24.80;;;19.80;;
23258;SDS011;11798;51.528;7.240;2023-08-01T04:54:43;32.00;;;20.93;;
23258;SDS011;11798;51.528;7.240;2023-08-01T04:57:09;28.93;;;20.60;;
23258;SDS011;11798;51.528;7.240;2023-08-01T04:59:35;26.23;;;18.80;;
23258;SDS011;11798;51.528;7.240;2023-08-01T05:02:00;28.23;;;19.50;;
23258;SDS011;11798;51.528;7.240;2023-08-01T05:04:26;27.05;;;19.10;;
23258;SDS011;11798;51.528;7.240;2023-08-01T05:06:51;27.50;;;20.37;;
23258;SDS011;11798;51.528;7.240;2023-08-01T05:09:17;26.60;;;19.00;;
23258;SDS011;11798;51.528;7.240;2023-08-01T05:11:42;26.67;;;19.13;;
23258;SDS011;11798;51.528;7.240;2023-08-01T05:14:08;27.83;;;19.07;;
23258;SDS011;11798;51.528;7.240;2023-08-01T05:16:34;26.57;;;18.67;;
23258;SDS011;11798;51.528;7.240;2023-08-01T05:18:59;31.43;;;19.27;;
23258;SDS011;11798;51.528;7.240;2023-08-01T05:21:25;26.70;;;18.77;;
23258;SDS011;11798;51.528;7.240;2023-08-01T05:23:51;31.63;;;19.60;;
23258;SDS011;11798;51.528;7.240;2023-08-01T05:26:16;24.40;;;18.90;;
23258;SDS011;11798;51.528;7.240;2023-08-01T05:28:42;35.13;;;20.43;;
23258;SDS011;11798;51.528;7.240;2023-08-01T05:31:07;30.70;;;20.30;;
23258;SDS011;11798;51.528;7.240;2023-08-01T05:33:33;31.60;;;20.83;;
23258;SDS011;11798;51.528;7.240;2023-08-01T05:35:58;29.27;;;19.87;;
23258;SDS011;11798;51.528;7.240;2023-08-01T05:38:24;30.77;;;19.67;;
23258;SDS011;11798;51.528;7.240;2023-08-01T05:40:50;28.43;;;18.47;;
23258;SDS011;11798;51.528;7.240;2023-08-01T05:43:15;30.03;;;19.17;;
23258;SDS011;11798;51.528;7.240;2023-08-01T05:45:41;30.03;;;19.57;;
23258;SDS011;11798;51.528;7.240;2023-08-01T05:48:07;29.90;;;20.60;;
23258;SDS011;11798;51.528;7.240;2023-08-01T05:55:23;28.93;;;19.83;;
23258;SDS011;11798;51.528;7.240;2023-08-01T05:57:49;27.43;;;21.50;;
23258;SDS011;11798;51.528;7.240;2023-08-01T06:00:17;31.97;;;21.90;;
23258;SDS011;11798;51.528;7.240;2023-08-01T06:02:44;28.30;;;20.87;;
23258;SDS011;11798;51.528;7.240;2023-08-01T06:05:09;33.35;;;21.10;;
23258;SDS011;11798;51.528;7.240;2023-08-01T06:07:35;30.25;;;20.70;;
23258;SDS011;11798;51.528;7.240;2023-08-01T06:10:01;29.70;;;21.70;;
23258;SDS011;11798;51.528;7.240;2023-08-01T06:12:26;34.90;;;22.53;;
23258;SDS011;11798;51.528;7.240;2023-08-01T06:14:52;33.17;;;22.73;;
23258;SDS011;11798;51.528;7.240;2023-08-01T06:17:18;33.87;;;23.20;;
23258;SDS011;11798;51.528;7.240;2023-08-01T06:19:43;34.07;;;23.30;;
23258;SDS011;11798;51.528;7.240;2023-08-01T06:22:09;33.80;;;23.17;;
23258;SDS011;11798;51.528;7.240;2023-08-01T06:24:34;34.57;;;22.60;;
23258;SDS011;11798;51.528;7.240;2023-08-01T06:27:00;37.03;;;23.70;;
23258;SDS011;11798;51.528;7.240;2023-08-01T06:29:25;37.73;;;23.27;;
23258;SDS011;11798;51.528;7.240;2023-08-01T06:31:51;32.33;;;23.67;;
23258;SDS011;11798;51.528;7.240;2023-08-01T06:34:17;33.20;;;23.37;;
23258;SDS011;11798;51.528;7.240;2023-08-01T06:36:43;33.20;;;22.10;;
23258;SDS011;11798;51.528;7.240;2023-08-01T06:39:08;33.63;;;23.77;;
23258;SDS011;11798;51.528;7.240;2023-08-01T06:41:34;33.43;;;22.13;;
23258;SDS011;11798;51.528;7.240;2023-08-01T06:43:59;32.17;;;22.63;;
23258;SDS011;11798;51.528;7.240;2023-08-01T06:46:25;29.73;;;21.30;;
23258;SDS011;11798;51.528;7.240;2023-08-01T06:48:50;33.17;;;20.37;;
23258;SDS011;11798;51.528;7.240;2023-08-01T06:51:16;29.13;;;19.87;;
23258;SDS011;11798;51.528;7.240;2023-08-01T06:53:42;31.50;;;19.70;;
23258;SDS011;11798;51.528;7.240;2023-08-01T06:56:08;25.97;;;19.77;;
23258;SDS011;11798;51.528;7.240;2023-08-01T06:58:33;33.40;;;21.40;;
23258;SDS011;11798;51.528;7.240;2023-08-01T07:00:59;30.53;;;19.70;;
23258;SDS011;11798;51.528;7.240;2023-08-01T07:03:24;25.90;;;19.17;;
23258;SDS011;11798;51.528;7.240;2023-08-01T07:05:50;28.03;;;19.63;;
23258;SDS011;11798;51.528;7.240;2023-08-01T07:08:16;25.47;;;18.03;;
23258;SDS011;11798;51.528;7.240;2023-08-01T07:10:41;26.33;;;19.10;;
23258;SDS011;11798;51.528;7.240;2023-08-01T07:13:07;28.43;;;21.07;;
23258;SDS011;11798;51.528;7.240;2023-08-01T07:15:32;27.77;;;20.70;;
23258;SDS011;11798;51.528;7.240;2023-08-01T07:17:59;32.70;;;21.50;;
23258;SDS011;11798;51.528;7.240;2023-08-01T07:20:24;29.47;;;20.50;;
23258;SDS011;11798;51.528;7.240;2023-08-01T07:22:50;26.47;;;19.67;;
23258;SDS011;11798;51.528;7.240;2023-08-01T07:25:15;28.70;;;19.53;;
23258;SDS011;11798;51.528;7.240;2023-08-01T07:27:42;27.17;;;19.60;;
23258;SDS011;11798;51.528;7.240;2023-08-01T07:30:08;24.20;;;19.30;;
23258;SDS011;11798;51.528;7.240;2023-08-01T07:32:35;27.83;;;18.47;;
23258;SDS011;11798;51.528;7.240;2023-08-01T07:35:02;23.30;;;18.60;;
23258;SDS011;11798;51.528;7.240;2023-08-01T07:37:28;30.43;;;19.30;;
23258;SDS011;11798;51.528;7.240;2023-08-01T07:39:55;28.10;;;18.93;;
23258;SDS011;11798;51.528;7.240;2023-08-01T07:42:21;24.10;;;17.30;;
23258;SDS011;11798;51.528;7.240;2023-08-01T07:44:46;22.03;;;16.63;;
23258;SDS011;11798;51.528;7.240;2023-08-01T07:47:12;28.70;;;18.23;;
23258;SDS011;11798;51.528;7.240;2023-08-01T07:49:37;23.97;;;15.60;;
23258;SDS011;11798;51.528;7.240;2023-08-01T07:52:03;21.50;;;15.45;;
23258;SDS011;11798;51.528;7.240;2023-08-01T07:59:20;21.30;;;14.00;;
23258;SDS011;11798;51.528;7.240;2023-08-01T08:06:38;19.30;;;12.40;;
23258;SDS011;11798;51.528;7.240;2023-08-01T08:13:54;15.70;;;11.30;;
23258;SDS011;11798;51.528;7.240;2023-08-01T08:16:20;19.13;;;12.30;;
23258;SDS011;11798;51.528;7.240;2023-08-01T08:18:45;19.80;;;12.80;;
23258;SDS011;11798;51.528;7.240;2023-08-01T08:21:11;17.20;;;11.05;;
23258;SDS011;11798;51.528;7.240;2023-08-01T08:23:37;20.00;;;11.40;;
23258;SDS011;11798;51.528;7.240;2023-08-01T08:30:57;16.73;;;11.00;;
23258;SDS011;11798;51.528;7.240;2023-08-01T08:33:23;17.33;;;12.00;;
23258;SDS011;11798;51.528;7.240;2023-08-01T08:35:49;14.97;;;11.17;;
23258;SDS011;11798;51.528;7.240;2023-08-01T08:38:15;17.07;;;10.53;;
23258;SDS011;11798;51.528;7.240;2023-08-01T08:40:43;18.70;;;10.73;;
23258;SDS011;11798;51.528;7.240;2023-08-01T08:43:23;15.70;;;10.70;;
23258;SDS011;11798;51.528;7.240;2023-08-01T08:45:49;20.60;;;10.90;;
23258;SDS011;11798;51.528;7.240;2023-08-01T08:48:17;16.23;;;11.07;;
23258;SDS011;11798;51.528;7.240;2023-08-01T08:50:45;14.83;;;11.10;;
23258;SDS011;11798;51.528;7.240;2023-08-01T08:53:11;19.17;;;11.20;;
23258;SDS011;11798;51.528;7.240;2023-08-01T08:55:38;17.63;;;11.30;;
23258;SDS011;11798;51.528;7.240;2023-08-01T08:58:05;16.10;;;10.73;;
23258;SDS011;11798;51.528;7.240;2023-08-01T09:00:31;17.63;;;11.43;;
23258;SDS011;11798;51.528;7.240;2023-08-01T09:02:57;14.90;;;11.07;;
23258;SDS011;11798;51.528;7.240;2023-08-01T09:05:23;15.97;;;11.10;;
23258;SDS011;11798;51.528;7.240;2023-08-01T09:07:52;17.73;;;11.70;;
23258;SDS011;11798;51.528;7.240;2023-08-01T09:10:22;16.47;;;11.53;;
23258;SDS011;11798;51.528;7.240;2023-08-01T09:12:48;16.50;;;12.57;;
23258;SDS011;11798;51.528;7.240;2023-08-01T09:15:14;17.57;;;12.03;;
23258;SDS011;11798;51.528;7.240;2023-08-01T09:17:51;13.10;;;11.23;;
23258;SDS011;11798;51.528;7.240;2023-08-01T09:20:18;15.63;;;11.73;;
23258;SDS011;11798;51.528;7.240;2023-08-01T09:25:10;17.33;;;11.23;;
23258;SDS011;11798;51.528;7.240;2023-08-01T09:27:36;15.27;;;11.30;;
23258;SDS011;11798;51.528;7.240;2023-08-01T09:30:09;13.13;;;9.93;;
23258;SDS011;11798;51.528;7.240;2023-08-01T09:32:38;13.83;;;10.53;;
23258;SDS011;11798;51.528;7.240;2023-08-01T09:35:24;12.90;;;8.97;;
23258;SDS011;11798;51.528;7.240;2023-08-01T09:37:50;13.07;;;9.27;;
23258;SDS011;11798;51.528;7.240;2023-08-01T09:40:15;9.73;;;7.97;;
23258;SDS011;11798;51.528;7.240;2023-08-01T09:42:42;11.73;;;8.90;;
23258;SDS011;11798;51.528;7.240;2023-08-01T09:47:38;12.77;;;7.20;;
23258;SDS011;11798;51.528;7.240;2023-08-01T09:50:03;9.73;;;7.20;;
23258;SDS011;11798;51.528;7.240;2023-08-01T09:52:29;10.77;;;6.60;;
23258;SDS011;11798;51.528;7.240;2023-08-01T09:54:55;12.70;;;6.90;;
23258;SDS011;11798;51.528;7.240;2023-08-01T09:59:47;9.47;;;6.67;;
23258;SDS011;11798;51.528;7.240;2023-08-01T10:02:14;9.10;;;7.13;;
23258;SDS011;11798;51.528;7.240;2023-08-01T10:04:43;9.33;;;6.70;;
23258;SDS011;11798;51.528;7.240;2023-08-01T10:07:11;8.07;;;6.37;;
23258;SDS011;11798;51.528;7.240;2023-08-01T10:09:38;10.20;;;6.17;;
23258;SDS011;11798;51.528;7.240;2023-08-01T10:12:05;9.93;;;5.80;;
23258;SDS011;11798;51.528;7.240;2023-08-01T10:14:32;6.93;;;5.30;;
23258;SDS011;11798;51.528;7.240;2023-08-01T10:16:58;9.40;;;5.67;;
23258;SDS011;11798;51.528;7.240;2023-08-01T10:19:24;10.70;;;6.17;;
23258;SDS011;11798;51.528;7.240;2023-08-01T10:21:51;9.87;;;5.57;;
23258;SDS011;11798;51.528;7.240;2023-08-01T10:24:18;10.27;;;6.17;;
23258;SDS011;11798;51.528;7.240;2023-08-01T10:26:45;8.00;;;6.43;;
23258;SDS011;11798;51.528;7.240;2023-08-01T10:29:11;7.93;;;6.30;;
23258;SDS011;11798;51.528;7.240;2023-08-01T10:31:37;9.83;;;5.30;;
23258;SDS011;11798;51.528;7.240;2023-08-01T10:34:03;10.83;;;6.07;;
23258;SDS011;11798;51.528;7.240;2023-08-01T10:36:31;9.53;;;6.37;;
23258;SDS011;11798;51.528;7.240;2023-08-01T10:38:59;8.47;;;6.30;;
23258;SDS011;11798;51.528;7.240;2023-08-01T10:41:26;9.30;;;6.20;;
23258;SDS011;11798;51.528;7.240;2023-08-01T10:44:08;7.80;;;6.13;;
23258;SDS011;11798;51.528;7.240;2023-08-01T10:46:51;9.97;;;6.90;;
23258;SDS011;11798;51.528;7.240;2023-08-01T10:49:34;8.60;;;5.77;;
23258;SDS011;11798;51.528;7.240;2023-08-01T10:52:03;9.57;;;6.47;;
23258;SDS011;11798;51.528;7.240;2023-08-01T10:54:40;8.17;;;6.60;;
23258;SDS011;11798;51.528;7.240;2023-08-01T10:57:05;9.20;;;6.20;;
23258;SDS011;11798;51.528;7.240;2023-08-01T10:59:31;8.20;;;6.10;;
23258;SDS011;11798;51.528;7.240;2023-08-01T11:01:58;9.77;;;6.37;;
23258;SDS011;11798;51.528;7.240;2023-08-01T11:04:24;9.33;;;5.73;;
23258;SDS011;11798;51.528;7.240;2023-08-01T11:06:53;9.17;;;6.23;;
23258;SDS011;11798;51.528;7.240;2023-08-01T11:09:24;7.43;;;6.27;;
23258;SDS011;11798;51.528;7.240;2023-08-01T11:11:57;9.43;;;7.13;;
23258;SDS011;11798;51.528;7.240;2023-08-01T11:14:27;9.40;;;6.93;;
23258;SDS011;11798;51.528;7.240;2023-08-01T11:16:54;10.10;;;6.20;;
23258;SDS011;11798;51.528;7.240;2023-08-01T11:19:27;8.50;;;6.20;;
23258;SDS011;11798;51.528;7.240;2023-08-01T11:21:54;9.87;;;7.07;;
23258;SDS011;11798;51.528;7.240;2023-08-01T11:24:25;11.10;;;7.37;;
23258;SDS011;11798;51.528;7.240;2023-08-01T11:26:51;9.93;;;6.90;;
23258;SDS011;11798;51.528;7.240;2023-08-01T11:29:19;11.10;;;7.53;;
23258;SDS011;11798;51.528;7.240;2023-08-01T11:31:55;9.20;;;7.23;;
23258;SDS011;11798;51.528;7.240;2023-08-01T11:34:22;7.63;;;6.27;;
23258;SDS011;11798;51.528;7.240;2023-08-01T11:36:47;7.03;;;5.03;;
23258;SDS011;11798;51.528;7.240;2023-08-01T11:39:14;6.60;;;4.57;;
23258;SDS011;11798;51.528;7.240;2023-08-01T11:41:41;9.37;;;4.73;;
23258;SDS011;11798;51.528;7.240;2023-08-01T11:44:06;6.87;;;4.20;;
23258;SDS011;11798;51.528;7.240;2023-08-01T11:46:34;6.33;;;4.87;;
23258;SDS011;11798;51.528;7.240;2023-08-01T11:49:00;8.80;;;5.30;;
23258;SDS011;11798;51.528;7.240;2023-08-01T11:51:27;6.73;;;5.47;;
23258;SDS011;11798;51.528;7.240;2023-08-01T11:54:00;7.93;;;4.00;;
23258;SDS011;11798;51.528;7.240;2023-08-01T11:56:29;6.23;;;3.63;;
23258;SDS011;11798;51.528;7.240;2023-08-01T11:58:56;8.77;;;3.53;;
23258;SDS011;11798;51.528;7.240;2023-08-01T12:01:22;5.83;;;3.30;;
23258;SDS011;11798;51.528;7.240;2023-08-01T12:03:48;4.83;;;3.10;;
23258;SDS011;11798;51.528;7.240;2023-08-01T12:06:15;7.03;;;3.27;;
23258;SDS011;11798;51.528;7.240;2023-08-01T12:08:42;10.53;;;3.70;;
23258;SDS011;11798;51.528;7.240;2023-08-01T12:16:27;5.33;;;2.90;;
23258;SDS011;11798;51.528;7.240;2023-08-01T12:18:53;7.53;;;3.30;;
23258;SDS011;11798;51.528;7.240;2023-08-01T12:21:18;7.23;;;2.93;;
23258;SDS011;11798;51.528;7.240;2023-08-01T12:23:44;5.87;;;2.63;;
23258;SDS011;11798;51.528;7.240;2023-08-01T12:26:09;6.97;;;2.83;;
23258;SDS011;11798;51.528;7.240;2023-08-01T12:28:35;8.43;;;3.03;;
23258;SDS011;11798;51.528;7.240;2023-08-01T12:31:01;4.47;;;2.30;;
23258;SDS011;11798;51.528;7.240;2023-08-01T12:33:28;5.23;;;2.50;;
23258;SDS011;11798;51.528;7.240;2023-08-01T12:35:54;6.87;;;2.70;;
23258;SDS011;11798;51.528;7.240;2023-08-01T12:38:20;7.00;;;2.70;;
23258;SDS011;11798;51.528;7.240;2023-08-01T12:40:45;8.17;;;3.00;;
23258;SDS011;11798;51.528;7.240;2023-08-01T12:43:12;6.17;;;2.60;;
23258;SDS011;11798;51.528;7.240;2023-08-01T12:45:37;6.43;;;3.00;;
23258;SDS011;11798;51.528;7.240;2023-08-01T12:48:03;7.03;;;3.00;;
23258;SDS011;11798;51.528;7.240;2023-08-01T12:50:29;7.57;;;3.03;;
23258;SDS011;11798;51.528;7.240;2023-08-01T12:52:54;8.67;;;3.80;;
23258;SDS011;11798;51.528;7.240;2023-08-01T12:55:20;5.80;;;3.33;;
23258;SDS011;11798;51.528;7.240;2023-08-01T12:57:46;7.07;;;3.20;;
23258;SDS011;11798;51.528;7.240;2023-08-01T13:00:12;6.63;;;3.70;;
23258;SDS011;11798;51.528;7.240;2023-08-01T13:02:37;6.07;;;3.50;;
23258;SDS011;11798;51.528;7.240;2023-08-01T13:05:04;6.33;;;4.00;;
23258;SDS011;11798;51.528;7.240;2023-08-01T13:07:30;7.07;;;3.87;;
23258;SDS011;11798;51.528;7.240;2023-08-01T13:09:59;5.57;;;3.40;;
23258;SDS011;11798;51.528;7.240;2023-08-01T13:12:25;8.20;;;4.00;;
23258;SDS011;11798;51.528;7.240;2023-08-01T13:14:51;9.13;;;4.00;;
23258;SDS011;11798;51.528;7.240;2023-08-01T13:17:17;7.53;;;3.37;;
23258;SDS011;11798;51.528;7.240;2023-08-01T13:19:43;7.30;;;3.60;;
23258;SDS011;11798;51.528;7.240;2023-08-01T13:22:09;5.30;;;3.30;;
23258;SDS011;11798;51.528;7.240;2023-08-01T13:24:34;6.65;;;3.35;;
23258;SDS011;11798;51.528;7.240;2023-08-01T13:27:00;7.32;;;3.33;;
23258;SDS011;11798;51.528;7.240;2023-08-01T13:29:25;5.10;;;2.92;;
23258;SDS011;11798;51.528;7.240;2023-08-01T13:31:51;6.90;;;2.97;;
23258;SDS011;11798;51.528;7.240;2023-08-01T13:34:16;5.23;;;2.53;;
23258;SDS011;11798;51.528;7.240;2023-08-01T13:36:42;7.80;;;3.35;;
23258;SDS011;11798;51.528;7.240;2023-08-01T13:39:08;6.87;;;2.90;;
23258;SDS011;11798;51.528;7.240;2023-08-01T13:41:34;7.63;;;3.27;;
23258;SDS011;11798;51.528;7.240;2023-08-01T13:44:00;6.33;;;3.30;;
23258;SDS011;11798;51.528;7.240;2023-08-01T13:46:25;7.05;;;3.35;;
23258;SDS011;11798;51.528;7.240;2023-08-01T13:48:51;5.00;;;2.75;;
23258;SDS011;11798;51.528;7.240;2023-08-01T13:51:17;5.88;;;3.08;;
23258;SDS011;11798;51.528;7.240;2023-08-01T13:53:42;8.57;;;4.00;;
23258;SDS011;11798;51.528;7.240;2023-08-01T13:56:08;7.90;;;3.15;;
23258;SDS011;11798;51.528;7.240;2023-08-01T13:58:35;6.47;;;2.97;;
23258;SDS011;11798;51.528;7.240;2023-08-01T14:01:06;4.43;;;2.67;;
23258;SDS011;11798;51.528;7.240;2023-08-01T14:03:37;5.37;;;2.20;;
23258;SDS011;11798;51.528;7.240;2023-08-01T14:06:06;7.30;;;2.97;;
23258;SDS011;11798;51.528;7.240;2023-08-01T14:08:33;7.32;;;2.70;;
23258;SDS011;11798;51.528;7.240;2023-08-01T14:10:58;8.15;;;3.45;;
23258;SDS011;11798;51.528;7.240;2023-08-01T14:13:24;9.27;;;2.90;;
23258;SDS011;11798;51.528;7.240;2023-08-01T14:15:50;7.50;;;3.30;;
23258;SDS011;11798;51.528;7.240;2023-08-01T14:18:16;5.80;;;2.50;;
23258;SDS011;11798;51.528;7.240;2023-08-01T14:20:42;5.72;;;2.65;;
23258;SDS011;11798;51.528;7.240;2023-08-01T14:23:08;7.28;;;2.60;;
23258;SDS011;11798;51.528;7.240;2023-08-01T14:25:34;6.53;;;2.58;;
23258;SDS011;11798;51.528;7.240;2023-08-01T14:27:59;6.53;;;2.10;;
23258;SDS011;11798;51.528;7.240;2023-08-01T14:30:26;6.45;;;2.05;;
23258;SDS011;11798;51.528;7.240;2023-08-01T14:32:58;4.18;;;2.13;;
23258;SDS011;11798;51.528;7.240;2023-08-01T14:35:28;5.85;;;2.00;;
23258;SDS011;11798;51.528;7.240;2023-08-01T14:37:53;4.85;;;2.33;;
23258;SDS011;11798;51.528;7.240;2023-08-01T14:40:20;5.22;;;2.53;;
23258;SDS011;11798;51.528;7.240;2023-08-01T14:42:46;4.97;;;1.88;;
23258;SDS011;11798;51.528;7.240;2023-08-01T14:45:12;9.15;;;2.75;;
23258;SDS011;11798;51.528;7.240;2023-08-01T14:47:39;5.55;;;2.30;;
23258;SDS011;11798;51.528;7.240;2023-08-01T14:50:05;4.57;;;2.05;;
23258;SDS011;11798;51.528;7.240;2023-08-01T14:52:31;3.65;;;2.00;;
23258;SDS011;11798;51.528;7.240;2023-08-01T14:54:57;5.57;;;2.55;;
23258;SDS011;11798;51.528;7.240;2023-08-01T14:57:22;8.13;;;2.78;;
23258;SDS011;11798;51.528;7.240;2023-08-01T14:59:48;5.47;;;2.30;;
23258;SDS011;11798;51.528;7.240;2023-08-01T15:02:14;4.30;;;1.90;;
23258;SDS011;11798;51.528;7.240;2023-08-01T15:04:40;5.05;;;2.38;;
23258;SDS011;11798;51.528;7.240;2023-08-01T15:07:05;7.57;;;3.10;;